Latest Weather Observations for Biloela

IDQ60801

Issued at 2:05 pm EST Thursday 24 July 2014 (issued every 30 minutes, with the page automatically refreshed every 10 minutes)

About weather observations | Map of weather stations | Latest weather observations for QLD | Other Formats
Station Details ID: 039089 Name: THANGOOL AIRPORT Lat: -24.49 Lon: 150.57 Height: 193.1 m
Data from the previous 72 hours. | See also: Recent months at Biloela
Date/Time
EST
Temp
°C
App
Temp
°C
Dew
Point
Rel
Hum
%
Delta-T
°C
Wind Press
QNH
hPa
Press
MSL
hPa
Rain
since 9 am
mm
Dir
 
Spd
km/h
Gust
km/h
Spd
kts
Gust
kts
24/02:00pm 26.1 24.0 8.1 32 9.7 WNW 9 19 5 10 1019.1 - 0.0
24/01:30pm 22.7 21.3 7.3 37 8.0 E 4 9 2 5 1019.7 - 0.0
24/01:00pm 22.9 20.3 6.2 34 8.6 N 9 15 5 8 1019.9 - 0.0
24/12:30pm 24.4 20.8 5.2 29 9.8 N 13 24 7 13 1020.2 - 0.0
24/12:00pm 23.4 20.2 4.9 30 9.3 NNW 11 24 6 13 1020.7 1020.6 0.0
24/11:30am 22.8 19.4 5.7 33 8.7 NE 13 19 7 10 1021.3 - 0.0
24/11:00am 22.8 19.5 6.6 35 8.4 N 13 19 7 10 1021.7 - 0.0
24/10:30am 21.4 19.1 7.3 40 7.3 ESE 9 19 5 10 1022.1 - 0.0
24/10:00am 19.8 18.1 7.5 45 6.3 SSE 6 11 3 6 1022.2 - 0.0
24/09:30am 18.4 16.7 8.4 52 5.2 SE 7 11 4 6 1022.0 - 0.0
24/09:00am 15.5 14.2 9.2 66 3.3 SE 6 7 3 4 1021.9 1021.9 0.0
24/08:30am 12.2 10.7 8.3 77 1.9 E 6 7 3 4 1021.8 - 0.0
24/08:00am 9.5 7.6 7.6 88 0.9 E 7 9 4 5 1021.8 - 0.0
24/07:30am 6.0 3.6 5.1 94 0.4 ESE 7 9 4 5 1021.4 - 0.0
24/07:00am 3.0 0.0 2.0 93 0.4 ESE 7 9 4 5 1021.2 - 0.0
24/06:30am 3.3 0.3 2.3 93 0.4 E 7 9 4 5 1021.2 - 0.0
24/06:00am 3.4 0.6 1.9 90 0.6 ESE 6 9 3 5 1021.2 1021.2 0.0
24/05:30am 5.6 3.2 5.2 97 0.2 ENE 7 9 4 5 1020.9 - 0.0
24/05:00am 3.5 0.6 2.5 93 0.4 E 7 9 4 5 1020.9 - 0.0
24/04:30am 3.3 0.5 2.0 91 0.5 E 6 9 3 5 1020.8 - 0.0
24/04:00am 3.7 1.7 2.2 90 0.6 E 2 7 1 4 1020.7 - 0.0
24/03:30am 4.0 1.3 2.5 90 0.6 E 6 9 3 5 1020.8 - 0.0
24/03:00am 4.7 3.2 3.2 90 0.6 CALM 0 0 0 0 1020.8 1020.7 0.0
24/02:30am 5.9 4.7 4.7 92 0.5 CALM 0 0 0 0 1020.8 - 0.0
24/02:00am 5.0 3.5 3.0 87 0.8 CALM 0 0 0 0 1020.9 - 0.0
24/01:30am 5.3 3.9 3.5 88 0.8 CALM 0 0 0 0 1020.9 - 0.0
24/01:00am 5.3 3.8 2.8 84 1.0 CALM 0 0 0 0 1021.2 - 0.0
24/12:30am 5.9 4.4 3.2 83 1.1 CALM 0 4 0 2 1021.0 - 0.0
24/12:00am 7.0 5.7 4.3 83 1.2 CALM 0 0 0 0 1021.0 1020.9 0.0
 
Date/Time
EST
Temp
°C
App
Temp
°C
Dew
Point
Rel
Hum
%
Delta-T
°C
Wind Press
QNH
hPa
Press
MSL
hPa
Rain
since 9 am
mm
Dir
 
Spd
km/h
Gust
km/h
Spd
kts
Gust
kts
23/11:30pm 7.7 6.4 4.1 78 1.6 CALM 0 0 0 0 1021.2 - 0.0
23/11:00pm 8.4 7.2 4.8 78 1.6 CALM 0 0 0 0 1021.0 - 0.0
23/10:30pm 10.6 8.4 6.0 73 2.2 SE 7 9 4 5 1021.2 - 0.0
23/10:00pm 10.3 9.3 5.5 72 2.2 CALM 0 0 0 0 1021.2 - 0.0
23/09:30pm 11.0 10.0 5.7 70 2.5 CALM 0 0 0 0 1021.0 - 0.0
23/09:00pm 13.0 10.8 6.4 64 3.2 S 7 9 4 5 1020.6 1020.5 0.0
23/08:30pm 15.4 14.0 8.9 65 3.4 SE 6 9 3 5 1020.2 - 0.0
23/08:00pm 14.8 12.9 7.4 61 3.7 ENE 7 9 4 5 1019.7 - 0.0
23/07:30pm 15.8 12.6 6.8 55 4.5 E 13 15 7 8 1019.5 - 0.0
23/07:00pm 18.5 14.8 7.9 50 5.5 NE 17 24 9 13 1019.4 - 0.0
23/06:30pm 17.0 14.5 5.0 45 5.8 NE 7 11 4 6 1019.2 - 0.0
23/06:00pm 17.8 15.1 2.9 37 6.9 E 6 7 3 4 1018.9 1018.8 0.0
23/05:30pm 19.2 16.1 1.2 30 8.2 E 7 9 4 5 1018.5 - 0.0
23/05:00pm 21.6 18.3 2.3 28 9.1 ESE 9 13 5 7 1018.0 - 0.0
23/04:30pm 22.7 18.7 2.8 27 9.6 ENE 13 20 7 11 1017.7 - 0.0
23/04:00pm 23.1 19.6 3.6 28 9.6 ESE 11 15 6 8 1017.9 - 0.0
23/03:30pm 21.8 19.1 3.5 30 8.9 S 7 9 4 5 1018.1 - 0.0
23/03:00pm 23.5 20.1 4.0 28 9.6 ESE 11 19 6 10 1017.7 1017.7 0.0
23/02:30pm 23.0 20.0 4.0 29 9.4 W 9 19 5 10 1018.2 - 0.0
23/02:00pm 22.3 18.9 3.9 30 9.0 SE 11 13 6 7 1018.6 - 0.0
23/01:30pm 23.5 20.8 5.4 31 9.2 NW 9 11 5 6 1018.8 - 0.0
23/01:00pm 22.7 19.1 5.2 32 8.8 S 13 19 7 10 1019.2 - 0.0
23/12:30pm 22.5 19.6 4.5 31 8.9 NW 9 15 5 8 1019.6 - 0.0
23/12:00pm 21.9 19.2 5.8 35 8.1 N 9 13 5 7 1020.5 1020.4 0.0
23/11:30am 21.8 19.9 6.9 38 7.7 NW 6 9 3 5 1021.2 - 0.0
23/11:00am 21.4 19.8 8.7 44 6.8 ESE 7 13 4 7 1021.8 - 0.0
23/10:30am 20.1 18.3 9.4 50 5.7 SSW 9 17 5 9 1022.6 - 0.0
23/10:00am 19.6 18.5 10.6 56 4.9 SE 7 13 4 7 1022.2 - 0.0
23/09:30am 16.5 14.6 10.4 67 3.3 ESE 11 15 6 8 1022.0 - 0.0
23/09:00am 14.9 13.2 9.7 71 2.7 ESE 9 11 5 6 1022.6 1022.6 0.0
23/08:30am 13.4 12.0 9.5 77 2.0 ESE 7 11 4 6 1022.7 - 0.0
23/08:00am 9.9 7.7 7.8 87 1.0 E 9 11 5 6 1022.5 - 0.0
23/07:30am 6.5 5.5 5.5 93 0.4 CALM 0 7 0 4 1022.1 - 0.0
23/07:00am 3.6 0.7 2.4 92 0.5 ESE 7 9 4 5 1021.4 - 0.0
23/06:30am 3.9 0.7 2.9 93 0.4 ESE 9 11 5 6 1021.0 - 0.0
23/06:00am 3.8 0.5 2.3 90 0.6 E 9 9 5 5 1020.6 1020.5 0.0
23/05:30am 4.0 1.2 2.2 88 0.7 E 6 6 3 3 1020.3 - 0.0
23/05:00am 3.6 0.7 1.3 85 0.9 E 6 7 3 4 1019.9 - 0.0
23/04:30am 6.0 3.5 4.8 92 0.5 E 7 9 4 5 1019.7 - 0.0
23/04:00am 6.2 3.7 4.7 90 0.7 E 7 9 4 5 1019.6 - 0.0
23/03:30am 3.6 0.6 0.8 82 1.1 E 6 7 3 4 1019.8 - 0.0
23/03:00am 5.4 2.3 3.7 89 0.7 E 9 11 5 6 1019.4 1019.3 0.0
23/02:30am 3.9 0.8 1.4 84 1.0 SE 7 9 4 5 1019.7 - 0.0
23/02:00am 4.7 1.9 2.1 83 1.1 SE 6 7 3 4 1019.9 - 0.0
23/01:30am 4.8 2.0 2.0 82 1.1 ESE 6 9 3 5 1020.1 - 0.0
23/01:00am 5.4 2.7 2.6 82 1.2 ESE 6 7 3 4 1020.2 - 0.0
23/12:30am 5.1 2.0 1.6 78 1.4 E 7 9 4 5 1020.3 - 0.0
23/12:00am 7.2 4.6 3.3 76 1.7 E 6 9 3 5 1020.4 1020.3 0.0
 
Date/Time
EST
Temp
°C
App
Temp
°C
Dew
Point
Rel
Hum
%
Delta-T
°C
Wind Press
QNH
hPa
Press
MSL
hPa
Rain
since 9 am
mm
Dir
 
Spd
km/h
Gust
km/h
Spd
kts
Gust
kts
22/11:30pm 7.6 4.8 2.9 72 2.0 E 7 11 4 6 1020.3 - 0.0
22/11:00pm 8.7 4.9 3.7 71 2.2 E 13 15 7 8 1020.4 - 0.0
22/10:30pm 6.9 4.8 1.6 69 2.2 E 2 7 1 4 1020.3 - 0.0
22/10:00pm 8.3 5.3 2.3 66 2.5 SE 7 9 4 5 1020.3 - 0.0
22/09:30pm 8.8 5.5 2.6 65 2.6 E 9 11 5 6 1020.2 - 0.0
22/09:00pm 10.2 7.6 4.4 67 2.6 NE 7 7 4 4 1020.5 1020.4 0.0
22/08:30pm 9.8 8.4 3.8 66 2.7 CALM 0 0 0 0 1020.3 - 0.0
22/08:00pm 10.5 9.0 2.8 59 3.4 CALM 0 0 0 0 1020.1 - 0.0
22/07:30pm 12.2 10.7 3.2 54 4.0 CALM 0 0 0 0 1019.9 - 0.0
22/07:00pm 13.2 10.6 3.0 50 4.6 SE 6 9 3 5 1019.5 - 0.0
22/06:30pm 15.3 12.8 3.5 45 5.4 E 6 9 3 5 1019.0 - 0.0
22/06:00pm 16.7 14.4 3.0 40 6.3 ENE 4 9 2 5 1018.6 1018.5 0.0
22/05:30pm 19.9 17.3 0.9 28 8.6 SW 4 7 2 4 1018.2 - 0.0
22/05:00pm 22.6 19.6 2.1 26 9.7 S 7 11 4 6 1017.7 - 0.0
22/04:30pm 23.2 19.9 2.7 26 9.9 S 9 15 5 8 1017.4 - 0.0
22/04:00pm 23.6 20.4 3.0 26 10.0 SW 9 17 5 9 1017.4 - 0.0
22/03:30pm 23.6 19.4 1.9 24 10.3 SW 13 24 7 13 1017.4 - 0.0
22/03:00pm 24.2 20.7 1.2 22 10.8 WSW 9 15 5 8 1017.4 1017.4 0.0
22/02:30pm 23.6 19.4 1.9 24 10.3 S 13 26 7 14 1017.6 - 0.0
22/02:00pm 24.1 20.4 2.3 24 10.5 SSW 11 19 6 10 1017.7 - 0.0
22/01:30pm 23.7 19.6 2.0 24 10.4 S 13 20 7 11 1018.4 - 0.0
22/01:00pm 23.3 18.6 3.3 27 9.8 WSW 17 22 9 12 1018.7 - 0.0
22/12:30pm 22.8 20.1 5.7 33 8.7 SE 9 15 5 8 1019.3 - 0.0
22/12:00pm 22.2 19.6 6.0 35 8.2 WNW 9 19 5 10 1020.2 1020.1 0.0
22/11:30am 21.5 19.7 8.1 42 7.1 SSW 7 13 4 7 1020.9 - 0.0
22/11:00am 20.5 19.0 8.5 46 6.3 SW 6 11 3 6 1021.5 - 0.0
22/10:30am 19.4 18.1 10.1 55 5.0 W 7 13 4 7 1021.9 - 0.0
22/10:00am 18.3 17.5 10.9 62 4.0 ESE 6 11 3 6 1022.3 - 0.0
22/09:30am 16.5 15.4 10.8 69 3.1 SSE 7 9 4 5 1022.4 - 0.0
22/09:00am 14.7 13.2 10.7 77 2.1 ESE 9 13 5 7 1022.5 1022.5 0.0
22/08:30am 12.0 10.8 9.6 85 1.2 E 6 9 3 5 1022.5 - 0.0
22/08:00am 9.0 8.3 8.4 96 0.3 SE 2 6 1 3 1022.4 - 0.0
22/07:30am 6.5 5.2 6.1 97 0.2 ESE 2 6 1 3 1022.1 - 0.0
22/07:09am 5.8 3.4 5.4 97 0.2 SE 7 11 4 6 1021.9 - 0.0
22/07:00am 5.6 3.2 5.2 97 0.2 ESE 7 9 4 5 1021.7 - 0.0
22/06:50am 4.6 1.9 3.9 95 0.3 ESE 7 7 4 4 1021.7 - 0.0
22/06:30am 5.7 3.3 5.3 97 0.2 E 7 11 4 6 1021.4 - 0.0
22/06:00am 3.2 -0.2 2.0 92 0.5 E 9 11 5 6 1021.1 1021.1 0.0
22/05:30am 3.9 1.0 2.6 91 0.5 E 7 7 4 4 1021.0 - 0.0
22/05:00am 3.5 0.4 1.5 87 0.8 E 7 9 4 5 1020.8 - 0.0
22/04:30am 5.2 2.5 3.7 90 0.6 E 7 9 4 5 1020.5 - 0.0
22/04:00am 5.8 2.5 4.6 92 0.5 E 11 11 6 6 1020.4 - 0.0
22/03:30am 4.4 1.3 1.6 82 1.1 E 7 9 4 5 1020.5 - 0.0
22/03:00am 6.8 4.0 5.3 90 0.7 E 9 11 5 6 1020.7 1020.6 0.0
22/02:30am 4.6 1.6 2.0 83 1.0 E 7 7 4 4 1020.6 - 0.0
22/02:00am 5.3 2.6 2.8 84 1.0 E 6 7 3 4 1020.8 - 0.0
22/01:30am 5.2 2.2 1.9 79 1.3 E 7 7 4 4 1020.9 - 0.0
22/01:00am 5.9 4.4 2.9 81 1.3 CALM 0 0 0 0 1021.0 - 0.0
22/12:30am 6.9 4.1 3.3 78 1.5 E 7 9 4 5 1021.2 - 0.0
22/12:00am 6.9 3.8 3.5 79 1.4 E 9 11 5 6 1021.4 1021.4 0.0
 
Date/Time
EST
Temp
°C
App
Temp
°C
Dew
Point
Rel
Hum
%
Delta-T
°C
Wind Press
QNH
hPa
Press
MSL
hPa
Rain
since 9 am
mm
Dir
 
Spd
km/h
Gust
km/h
Spd
kts
Gust
kts
21/11:30pm 6.6 3.3 2.5 75 1.7 E 9 9 5 5 1021.6 - 0.0
21/11:00pm 6.3 4.6 1.8 73 1.8 CALM 0 0 0 0 1021.7 - 0.0
21/10:30pm 6.4 4.7 2.1 74 1.8 CALM 0 0 0 0 1021.8 - 0.0
21/10:00pm 7.5 5.9 2.4 70 2.1 CALM 0 0 0 0 1021.8 - 0.0
21/09:30pm 7.9 6.3 2.4 68 2.3 CALM 0 0 0 0 1021.7 - 0.0
21/09:00pm 8.8 7.2 2.2 63 2.8 CALM 0 0 0 0 1021.6 1021.6 0.0
21/08:30pm 9.9 7.0 1.5 56 3.5 ESE 6 9 3 5 1021.3 - 0.0
21/08:00pm 10.7 7.9 2.3 56 3.6 E 6 13 3 7 1021.0 - 0.0
21/07:30pm 13.5 10.1 3.8 52 4.4 E 11 13 6 7 1020.6 - 0.0
21/07:00pm 13.4 10.3 3.5 51 4.5 E 9 13 5 7 1020.3 - 0.0
21/06:30pm 12.9 11.3 2.2 48 4.7 CALM 0 0 0 0 1020.0 - 0.0
21/06:00pm 14.4 12.5 0.6 39 5.9 CALM 0 0 0 0 1019.6 1019.5 0.0
21/05:30pm 18.4 16.4 2.3 34 7.4 SW 2 6 1 3 1019.3 - 0.0
21/05:00pm 21.5 19.9 2.2 28 9.1 CALM 0 0 0 0 1019.0 - 0.0
21/04:30pm 22.3 19.4 2.4 27 9.5 SE 7 9 4 5 1018.6 - 0.0
21/04:00pm 22.9 20.0 2.4 26 9.8 N 7 11 4 6 1018.6 - 0.0
21/03:30pm 23.3 20.4 2.7 26 9.9 SSE 7 13 4 7 1018.6 - 0.0
21/03:00pm 23.3 19.8 3.3 27 9.7 W 11 15 6 8 1018.6 1018.5 0.0
21/02:30pm 23.0 20.2 3.0 27 9.7 E 7 19 4 10 1018.7 - 0.0

Other Formats:

Comma delimited format used in spreadsheet applications
http://www.bom.gov.au/fwo/IDQ60801/IDQ60801.94376.axf

JavaScript Object Notation format (JSON) in row-major order
http://www.bom.gov.au/fwo/IDQ60801/IDQ60801.94376.json